Time;durP1;ratioP1;P1;durP2;ratioP2;P2;SDS_P1;SDS_P2;PMS_P1;PMS_P2;Temp;Humidity;BMP_temperature;BMP_pressure;BME280_temperature;BME280_humidity;BME280_pressure;Samples;Min_cycle;Max_cycle;Signal;HPM_P1;HPM_P2
2023/07/17 00:00:11;;;;;;;1.93;1.77;;;25.50;43.20;;;;;;4944052;28;20477;-46
2023/07/17 00:02:43;;;;;;;2.93;2.63;;;25.50;43.20;;;;;;4937201;29;20508;-46
2023/07/17 00:05:13;;;;;;;3.83;2.60;;;25.50;43.10;;;;;;4931527;28;20487;-47
2023/07/17 00:07:42;;;;;;;2.20;2.00;;;25.50;43.20;;;;;;4960293;28;20461;-46
2023/07/17 00:10:11;;;;;;;3.10;2.80;;;25.50;43.20;;;;;;4952865;28;20489;-47
2023/07/17 00:12:40;;;;;;;2.50;2.30;;;25.50;43.20;;;;;;4938141;29;20449;-47
2023/07/17 00:15:11;;;;;;;3.40;2.63;;;25.50;43.20;;;;;;4935822;28;20600;-51
2023/07/17 00:17:39;;;;;;;3.90;2.13;;;25.50;43.30;;;;;;4933719;29;20472;-46
2023/07/17 00:20:11;;;;;;;2.30;2.10;;;25.50;43.30;;;;;;4954838;28;20472;-45
2023/07/17 00:22:40;;;;;;;2.57;2.37;;;25.50;43.40;;;;;;4940312;29;20500;-46
2023/07/17 00:25:10;;;;;;;3.30;2.07;;;25.50;43.40;;;;;;4953840;28;21013;-47
2023/07/17 00:27:38;;;;;;;2.43;2.23;;;25.50;43.30;;;;;;4954807;28;20584;-46
2023/07/17 00:30:08;;;;;;;3.00;2.30;;;25.50;43.40;;;;;;4947919;28;20960;-46
2023/07/17 00:32:38;;;;;;;2.40;2.20;;;25.50;43.50;;;;;;4953614;28;20799;-46
2023/07/17 00:35:09;;;;;;;1.83;1.73;;;25.50;43.50;;;;;;4929801;29;20481;-46
2023/07/17 00:37:38;;;;;;;2.47;2.27;;;25.50;43.60;;;;;;4937447;29;20818;-47
2023/07/17 00:40:08;;;;;;;2.40;2.10;;;25.50;43.50;;;;;;4927989;28;20478;-46
2023/07/17 00:42:38;;;;;;;2.43;2.23;;;25.50;43.40;;;;;;4932581;29;20814;-47
2023/07/17 00:45:07;;;;;;;3.47;2.53;;;25.50;43.50;;;;;;4914673;29;20486;-46
2023/07/17 00:47:38;;;;;;;2.63;2.43;;;25.40;43.20;;;;;;4917766;29;20478;-47
2023/07/17 00:50:09;;;;;;;2.67;2.40;;;25.40;43.40;;;;;;4915368;29;21030;-46
2023/07/17 00:52:40;;;;;;;2.80;2.43;;;25.40;43.40;;;;;;4938490;29;20501;-47
2023/07/17 00:55:10;;;;;;;2.40;2.20;;;25.40;43.30;;;;;;4928675;28;20484;-46
2023/07/17 00:57:39;;;;;;;2.40;2.17;;;25.40;43.50;;;;;;4932238;29;20871;-44
2023/07/17 01:00:12;;;;;;;3.03;1.93;;;25.40;43.40;;;;;;4917896;29;20881;-47
2023/07/17 01:02:43;;;;;;;2.00;1.90;;;25.40;43.50;;;;;;4935623;29;21034;-46
2023/07/17 01:05:11;;;;;;;3.37;2.60;;;25.40;43.50;;;;;;4943598;29;20482;-46
2023/07/17 01:07:40;;;;;;;2.83;2.53;;;25.40;43.50;;;;;;4934502;29;20815;-46
2023/07/17 01:10:10;;;;;;;2.53;2.13;;;25.40;43.60;;;;;;4923494;28;20573;-47
2023/07/17 01:12:38;;;;;;;2.90;2.60;;;25.40;43.50;;;;;;4937026;29;20442;-47
2023/07/17 01:15:08;;;;;;;3.37;2.20;;;25.40;43.50;;;;;;4932694;29;20564;-45
2023/07/17 01:17:37;;;;;;;2.27;1.97;;;25.40;43.50;;;;;;4931607;29;20446;-46
2023/07/17 01:20:10;;;;;;;2.17;2.00;;;25.40;43.60;;;;;;4939066;28;20544;-47
2023/07/17 01:22:55;;;;;;;2.47;2.27;;;25.40;44.10;;;;;;4923845;29;21038;-46
2023/07/17 01:25:24;;;;;;;2.70;2.10;;;25.40;43.50;;;;;;4916916;29;20493;-45
2023/07/17 01:27:53;;;;;;;2.13;1.93;;;25.40;43.60;;;;;;4942914;29;20506;-46
2023/07/17 01:30:25;;;;;;;2.70;1.83;;;25.40;43.60;;;;;;4925828;28;20482;-46
2023/07/17 01:32:54;;;;;;;3.00;2.30;;;25.40;43.60;;;;;;4923936;29;20871;-46
2023/07/17 01:35:24;;;;;;;2.57;2.37;;;25.40;43.60;;;;;;4931286;29;21151;-46
2023/07/17 01:37:53;;;;;;;2.47;2.27;;;25.40;43.50;;;;;;4921457;29;20426;-48
2023/07/17 01:40:23;;;;;;;2.20;1.80;;;25.40;43.80;;;;;;4937883;28;20478;-47
2023/07/17 01:42:52;;;;;;;2.40;2.20;;;25.40;43.70;;;;;;4932387;29;20480;-46
2023/07/17 01:45:23;;;;;;;2.07;1.87;;;25.40;43.60;;;;;;4930283;28;20489;-47
2023/07/17 01:47:52;;;;;;;2.50;2.00;;;25.40;43.60;;;;;;4917155;29;20448;-46
2023/07/17 01:50:21;;;;;;;2.33;2.10;;;25.40;43.60;;;;;;4957528;28;20485;-46
2023/07/17 01:52:49;;;;;;;2.73;2.53;;;25.40;43.70;;;;;;4949784;28;20822;-46
2023/07/17 01:55:18;;;;;;;2.60;2.33;;;25.40;43.70;;;;;;4932777;28;20990;-46
2023/07/17 01:57:48;;;;;;;3.23;2.00;;;25.40;43.70;;;;;;4948989;28;20463;-44
2023/07/17 02:00:17;;;;;;;2.40;2.00;;;25.40;43.60;;;;;;4956157;28;20475;-46
2023/07/17 02:02:46;;;;;;;1.77;1.63;;;25.40;43.70;;;;;;4946886;29;20473;-46
2023/07/17 02:05:15;;;;;;;3.13;1.70;;;25.40;43.70;;;;;;4939324;29;20469;-46
2023/07/17 02:07:44;;;;;;;2.43;2.20;;;25.40;43.70;;;;;;4963942;28;20817;-46
2023/07/17 02:10:12;;;;;;;2.67;2.10;;;25.30;43.50;;;;;;4938266;28;20569;-46
2023/07/17 02:12:45;;;;;;;3.17;2.10;;;25.30;43.60;;;;;;4928311;29;20466;-46
2023/07/17 02:15:15;;;;;;;3.00;2.60;;;25.30;43.70;;;;;;4910916;29;20480;-47
2023/07/17 02:17:44;;;;;;;2.60;2.33;;;25.30;43.70;;;;;;4932275;29;20538;-47
2023/07/17 02:20:13;;;;;;;2.70;2.50;;;25.30;43.80;;;;;;4922246;29;20488;-46
2023/07/17 02:22:42;;;;;;;2.90;2.27;;;25.30;43.70;;;;;;4939406;29;20517;-47
2023/07/17 02:25:12;;;;;;;3.83;2.60;;;25.30;43.70;;;;;;4915787;29;20473;-46
2023/07/17 02:27:41;;;;;;;2.53;2.20;;;25.30;43.70;;;;;;4936983;29;20465;-47
2023/07/17 02:30:10;;;;;;;2.00;1.80;;;25.30;43.60;;;;;;4928483;29;20629;-46
2023/07/17 02:32:40;;;;;;;2.73;2.30;;;25.30;43.80;;;;;;4927987;29;20453;-45
2023/07/17 02:35:09;;;;;;;2.30;2.10;;;25.30;43.70;;;;;;4916184;29;20864;-46
2023/07/17 02:37:38;;;;;;;2.20;1.87;;;25.30;43.80;;;;;;4930896;29;20438;-46
2023/07/17 02:40:12;;;;;;;3.90;1.90;;;25.30;43.80;;;;;;4909872;29;20470;-45
2023/07/17 02:42:40;;;;;;;2.97;2.67;;;25.30;43.70;;;;;;4928244;29;20555;-46
2023/07/17 02:45:10;;;;;;;2.27;2.07;;;25.30;43.70;;;;;;4932666;28;20519;-46
2023/07/17 02:47:40;;;;;;;2.00;1.90;;;25.30;43.80;;;;;;4925444;29;20943;-47
2023/07/17 02:50:10;;;;;;;2.60;2.37;;;25.30;43.90;;;;;;4935869;29;20570;-46
2023/07/17 02:52:39;;;;;;;2.47;2.10;;;25.30;45.10;;;;;;4929222;29;20457;-46
2023/07/17 02:55:09;;;;;;;1.83;1.60;;;25.30;43.90;;;;;;4912572;29;20477;-47
2023/07/17 02:57:38;;;;;;;3.07;2.20;;;25.30;43.80;;;;;;4929180;29;20453;-47
2023/07/17 03:00:10;;;;;;;2.00;1.80;;;25.20;43.90;;;;;;4926822;29;20475;-47
2023/07/17 03:02:41;;;;;;;2.30;1.63;;;25.20;43.70;;;;;;4927009;29;20497;-46
2023/07/17 03:05:12;;;;;;;2.17;1.90;;;25.20;43.80;;;;;;4925052;29;21013;-47
2023/07/17 03:07:42;;;;;;;2.40;2.20;;;25.20;43.80;;;;;;4912446;29;20544;-46
2023/07/17 03:10:12;;;;;;;1.70;1.60;;;25.20;43.90;;;;;;4927307;29;20518;-46
2023/07/17 03:12:41;;;;;;;2.57;2.37;;;25.20;44.00;;;;;;4929645;29;20450;-45
2023/07/17 03:15:11;;;;;;;2.10;1.90;;;25.20;44.00;;;;;;4910105;29;20486;-46
2023/07/17 03:17:41;;;;;;;2.37;2.17;;;25.20;44.00;;;;;;4927227;29;20459;-46
2023/07/17 03:20:11;;;;;;;2.43;2.23;;;25.20;43.70;;;;;;4911289;29;20493;-47
2023/07/17 03:22:40;;;;;;;2.83;1.93;;;25.20;43.90;;;;;;4931814;29;20808;-45
2023/07/17 03:25:09;;;;;;;2.33;2.13;;;25.20;44.00;;;;;;4947258;28;20483;-46
2023/07/17 03:27:38;;;;;;;2.03;1.83;;;25.20;44.00;;;;;;4951901;28;20455;-46
2023/07/17 03:30:08;;;;;;;2.17;1.80;;;25.20;43.80;;;;;;4949520;28;20483;-46
2023/07/17 03:32:38;;;;;;;2.63;1.93;;;25.20;43.80;;;;;;4935229;28;20530;-46
2023/07/17 03:35:10;;;;;;;2.07;1.87;;;25.20;44.00;;;;;;4957224;28;20501;-46
2023/07/17 03:37:39;;;;;;;2.27;1.50;;;25.20;43.90;;;;;;4952746;28;20457;-46
2023/07/17 03:40:10;;;;;;;2.13;1.97;;;25.20;43.70;;;;;;4949324;28;20471;-45
2023/07/17 03:42:39;;;;;;;2.20;2.00;;;25.20;43.90;;;;;;4951524;29;20478;-47
2023/07/17 03:45:09;;;;;;;1.50;1.40;;;25.10;43.90;;;;;;4951604;28;20485;-45
2023/07/17 03:47:39;;;;;;;1.93;1.57;;;25.10;43.90;;;;;;4934731;29;20948;-47
2023/07/17 03:50:11;;;;;;;2.63;2.43;;;25.20;44.10;;;;;;4951372;28;20480;-46
2023/07/17 03:52:40;;;;;;;1.53;1.20;;;25.10;44.00;;;;;;4951185;28;20617;-45
2023/07/17 03:55:09;;;;;;;1.50;1.40;;;25.10;44.00;;;;;;4950525;28;20457;-46
2023/07/17 03:57:38;;;;;;;2.07;1.87;;;25.10;44.00;;;;;;4949328;28;20876;-46
2023/07/17 04:00:13;;;;;;;2.47;2.03;;;25.10;43.90;;;;;;4950327;28;20595;-46
2023/07/17 04:02:42;;;;;;;2.50;2.30;;;25.10;43.90;;;;;;4950886;29;20454;-47
2023/07/17 04:05:20;;;;;;;1.87;1.70;;;25.10;44.00;;;;;;4933736;29;20479;-46
2023/07/17 04:07:51;;;;;;;2.13;1.93;;;25.10;44.00;;;;;;4951845;28;20876;-46
2023/07/17 04:10:20;;;;;;;2.60;1.90;;;25.10;43.80;;;;;;4920742;28;20509;-44
2023/07/17 04:12:49;;;;;;;1.47;1.30;;;25.10;44.00;;;;;;4921681;29;20459;-45
2023/07/17 04:15:17;;;;;;;2.30;2.10;;;25.10;44.00;;;;;;4916263;29;20535;-47
2023/07/17 04:17:46;;;;;;;2.07;1.73;;;25.10;44.10;;;;;;4915884;29;20451;-46
2023/07/17 04:20:16;;;;;;;2.07;1.87;;;25.10;44.00;;;;;;4931851;29;20483;-46
2023/07/17 04:22:46;;;;;;;1.60;1.50;;;25.10;44.10;;;;;;4932182;29;20457;-46
2023/07/17 04:25:15;;;;;;;2.00;1.80;;;25.10;44.10;;;;;;4933699;28;21062;-47
2023/07/17 04:27:45;;;;;;;1.60;1.50;;;25.10;44.20;;;;;;4931166;29;20453;-46
2023/07/17 04:30:16;;;;;;;1.70;1.60;;;25.10;44.20;;;;;;4945231;28;20497;-46
2023/07/17 04:32:44;;;;;;;2.70;2.00;;;25.10;44.20;;;;;;4945085;28;20496;-45
2023/07/17 04:35:13;;;;;;;2.07;1.87;;;25.10;44.20;;;;;;4934561;28;20473;-47
2023/07/17 04:37:42;;;;;;;1.77;1.53;;;25.00;44.00;;;;;;4917483;29;20491;-46
2023/07/17 04:40:15;;;;;;;2.17;1.50;;;25.00;44.10;;;;;;4932850;28;20842;-45
2023/07/17 04:42:47;;;;;;;2.07;1.87;;;25.00;44.20;;;;;;4914975;29;20451;-45
2023/07/17 04:45:19;;;;;;;1.90;1.77;;;25.10;44.30;;;;;;4914411;29;20472;-45
2023/07/17 04:47:49;;;;;;;1.90;1.60;;;25.00;44.30;;;;;;4931080;29;20537;-46
2023/07/17 04:50:18;;;;;;;1.80;1.70;;;25.00;44.30;;;;;;4915345;29;20901;-46
2023/07/17 04:52:47;;;;;;;1.70;1.60;;;25.00;44.30;;;;;;4915534;29;20955;-46
2023/07/17 04:55:18;;;;;;;1.80;1.70;;;25.00;44.30;;;;;;4948774;28;20531;-47
2023/07/17 04:57:48;;;;;;;2.07;1.87;;;25.00;44.30;;;;;;4930623;29;20444;-46
2023/07/17 05:00:19;;;;;;;2.17;1.97;;;25.00;44.30;;;;;;4930680;28;20510;-46
2023/07/17 05:02:49;;;;;;;2.43;1.60;;;25.00;44.30;;;;;;4912789;29;20475;-46
2023/07/17 05:05:18;;;;;;;2.17;1.80;;;25.00;44.30;;;;;;4930844;28;21025;-46
2023/07/17 05:07:47;;;;;;;1.77;1.67;;;25.00;44.30;;;;;;4929465;29;20539;-46
2023/07/17 05:10:18;;;;;;;2.30;1.90;;;24.90;44.30;;;;;;4931950;28;20467;-46
2023/07/17 05:12:47;;;;;;;2.57;1.90;;;24.90;44.30;;;;;;4914163;29;21012;-44
2023/07/17 05:15:17;;;;;;;2.10;1.50;;;24.90;44.30;;;;;;4944596;28;20492;-47
2023/07/17 05:17:46;;;;;;;1.63;1.50;;;24.90;44.20;;;;;;4948636;28;20456;-46
2023/07/17 05:20:15;;;;;;;3.40;1.80;;;24.90;44.40;;;;;;4922624;28;20457;-46
2023/07/17 05:22:45;;;;;;;2.17;1.70;;;24.90;44.40;;;;;;4925399;29;20493;-47
2023/07/17 05:25:14;;;;;;;1.80;1.53;;;24.90;44.40;;;;;;4929717;28;20475;-45
2023/07/17 05:27:45;;;;;;;2.43;1.77;;;24.90;44.30;;;;;;4913194;29;20451;-46
2023/07/17 05:30:19;;;;;;;4.00;1.93;;;24.90;44.20;;;;;;4946473;28;20825;-47
2023/07/17 05:32:49;;;;;;;1.97;1.77;;;24.90;44.30;;;;;;4925316;29;20527;-46
2023/07/17 05:35:18;;;;;;;1.90;1.50;;;24.90;44.30;;;;;;4922591;28;20560;-45
2023/07/17 05:37:48;;;;;;;2.00;1.80;;;24.90;44.20;;;;;;4935039;29;20475;-47
2023/07/17 05:40:17;;;;;;;3.83;1.90;;;24.90;44.20;;;;;;4916355;28;20511;-47
2023/07/17 05:42:47;;;;;;;2.90;1.90;;;24.90;44.00;;;;;;4915866;29;20439;-46
2023/07/17 05:45:16;;;;;;;1.90;1.70;;;24.90;44.40;;;;;;4920646;29;20501;-47
2023/07/17 05:47:45;;;;;;;1.87;1.70;;;24.90;44.30;;;;;;4938442;29;20457;-47
2023/07/17 05:50:14;;;;;;;2.20;2.00;;;24.90;44.30;;;;;;4940394;28;20521;-46
2023/07/17 05:52:42;;;;;;;3.63;1.77;;;24.90;44.20;;;;;;4931685;29;20443;-46
2023/07/17 05:55:11;;;;;;;2.70;1.70;;;24.90;44.30;;;;;;4944011;28;20501;-47
2023/07/17 05:57:41;;;;;;;1.80;1.70;;;24.90;44.00;;;;;;4930508;29;20534;-46
2023/07/17 06:00:13;;;;;;;3.17;2.00;;;24.90;44.20;;;;;;4939862;28;20577;-47
2023/07/17 06:02:41;;;;;;;2.17;2.03;;;24.90;44.10;;;;;;4937893;29;20495;-46
2023/07/17 06:05:11;;;;;;;1.50;1.20;;;24.90;44.20;;;;;;4937708;28;20491;-46
2023/07/17 06:07:40;;;;;;;2.83;1.67;;;24.90;44.20;;;;;;4953197;28;20477;-46
2023/07/17 06:10:09;;;;;;;2.23;1.90;;;24.90;44.00;;;;;;4945054;28;20542;-45
2023/07/17 06:12:38;;;;;;;2.60;1.97;;;24.90;44.00;;;;;;4935606;29;20945;-45
2023/07/17 06:15:13;;;;;;;2.33;2.00;;;24.90;44.20;;;;;;4952383;28;20478;-47
2023/07/17 06:17:42;;;;;;;1.83;1.70;;;24.90;44.10;;;;;;4934695;29;20842;-46
2023/07/17 06:20:12;;;;;;;2.10;1.90;;;24.90;44.10;;;;;;4953448;28;21014;-47
2023/07/17 06:22:40;;;;;;;2.53;1.57;;;24.80;44.00;;;;;;4949697;28;20523;-44
2023/07/17 06:25:10;;;;;;;1.70;1.60;;;24.90;43.90;;;;;;4931144;28;20534;-46
2023/07/17 06:27:39;;;;;;;2.40;1.90;;;24.90;44.00;;;;;;4940102;29;20530;-46
2023/07/17 06:30:10;;;;;;;4.37;1.70;;;24.90;44.20;;;;;;4937455;28;20473;-45
2023/07/17 06:32:40;;;;;;;2.53;1.93;;;24.90;44.20;;;;;;4951789;28;20448;-46
2023/07/17 06:35:10;;;;;;;2.40;2.20;;;24.90;44.10;;;;;;4937968;29;20487;-46
2023/07/17 06:37:39;;;;;;;1.77;1.67;;;24.90;43.80;;;;;;4954330;28;20818;-46
2023/07/17 06:40:10;;;;;;;2.40;1.87;;;24.90;43.90;;;;;;4939884;28;21019;-46
2023/07/17 06:42:40;;;;;;;1.57;1.47;;;24.90;44.00;;;;;;4948632;28;20877;-46
2023/07/17 06:45:09;;;;;;;1.97;1.77;;;24.80;44.00;;;;;;4947405;28;20477;-45
2023/07/17 06:47:38;;;;;;;2.57;1.87;;;24.90;43.80;;;;;;4952295;28;20450;-47
2023/07/17 06:50:09;;;;;;;2.60;1.87;;;24.80;43.80;;;;;;4936692;28;20550;-46
2023/07/17 06:52:38;;;;;;;2.90;1.93;;;24.80;43.90;;;;;;4956982;28;20443;-47
2023/07/17 06:55:09;;;;;;;2.30;1.90;;;24.90;44.00;;;;;;4953498;28;20491;-46
2023/07/17 06:57:38;;;;;;;4.40;1.90;;;24.90;43.90;;;;;;4940835;29;21004;-46
2023/07/17 07:00:08;;;;;;;1.70;1.60;;;24.80;43.90;;;;;;4956970;28;20474;-47
2023/07/17 07:02:36;;;;;;;1.70;1.60;;;24.80;43.90;;;;;;4958169;28;20442;-45
2023/07/17 07:05:09;;;;;;;1.80;1.63;;;24.80;43.70;;;;;;4946646;28;20476;-45
2023/07/17 07:07:41;;;;;;;3.83;2.30;;;24.80;43.90;;;;;;4938518;29;20528;-46
2023/07/17 07:10:10;;;;;;;5.57;3.00;;;24.80;43.50;;;;;;4953384;28;20516;-45
2023/07/17 07:12:39;;;;;;;5.47;2.90;;;25.00;40.80;;;;;;4939043;29;20447;-47
2023/07/17 07:15:09;;;;;;;3.33;2.77;;;24.90;40.50;;;;;;4951190;28;20537;-47
2023/07/17 07:17:38;;;;;;;3.80;2.80;;;24.80;41.30;;;;;;4954314;28;20983;-45
2023/07/17 07:20:10;;;;;;;4.60;3.43;;;24.80;41.50;;;;;;4957207;28;20553;-47
2023/07/17 07:22:38;;;;;;;4.30;3.30;;;24.70;41.60;;;;;;4939726;29;20482;-46
2023/07/17 07:25:08;;;;;;;2.90;2.47;;;24.70;41.80;;;;;;4939602;28;21013;-47
2023/07/17 07:27:37;;;;;;;2.93;2.70;;;24.80;42.10;;;;;;4940830;29;20536;-46
2023/07/17 07:30:07;;;;;;;2.83;2.50;;;24.70;42.10;;;;;;4953975;28;20473;-46
2023/07/17 07:32:36;;;;;;;5.00;2.90;;;24.80;42.40;;;;;;4958852;28;20449;-46
2023/07/17 07:35:05;;;;;;;3.50;2.90;;;24.70;42.40;;;;;;4959833;28;20500;-47
2023/07/17 07:37:35;;;;;;;2.90;2.50;;;24.80;42.60;;;;;;4939579;29;20453;-45
2023/07/17 07:40:06;;;;;;;3.50;2.77;;;24.80;42.60;;;;;;4931312;28;20550;-46
2023/07/17 07:42:35;;;;;;;5.53;2.87;;;24.80;42.80;;;;;;4931279;29;20445;-45
2023/07/17 07:45:04;;;;;;;2.83;2.63;;;24.80;42.90;;;;;;4940262;28;21038;-47
2023/07/17 07:47:33;;;;;;;3.67;2.50;;;24.80;42.90;;;;;;4941591;29;20442;-45
2023/07/17 07:50:02;;;;;;;2.93;2.60;;;24.80;42.90;;;;;;4954009;28;20479;-46
2023/07/17 07:52:30;;;;;;;3.60;2.93;;;24.80;43.10;;;;;;4945530;29;20444;-46
2023/07/17 07:55:01;;;;;;;3.00;2.70;;;24.80;43.00;;;;;;4936945;28;20475;-47
2023/07/17 07:57:29;;;;;;;3.30;2.93;;;24.80;43.00;;;;;;4952967;28;20441;-46
2023/07/17 07:59:58;;;;;;;3.63;2.73;;;24.80;43.70;;;;;;4953442;28;20475;-46
2023/07/17 08:02:27;;;;;;;4.40;2.70;;;24.80;43.00;;;;;;4956161;28;20519;-46
2023/07/17 08:04:56;;;;;;;3.03;2.73;;;24.80;43.10;;;;;;4941523;28;20536;-45
2023/07/17 08:07:25;;;;;;;4.03;3.00;;;24.90;43.10;;;;;;4945327;28;20434;-47
2023/07/17 08:09:54;;;;;;;3.00;2.43;;;24.80;43.10;;;;;;4952010;28;20523;-47
2023/07/17 08:12:24;;;;;;;3.93;3.00;;;24.80;43.10;;;;;;4956663;28;20459;-47
2023/07/17 08:14:53;;;;;;;3.70;2.87;;;24.80;43.10;;;;;;4958172;28;20461;-46
2023/07/17 08:17:22;;;;;;;5.03;3.17;;;24.80;43.10;;;;;;4935728;29;20646;-45
2023/07/17 08:19:50;;;;;;;3.60;3.30;;;24.80;41.90;;;;;;4939341;28;20540;-46
2023/07/17 08:22:19;;;;;;;3.50;2.83;;;24.90;42.30;;;;;;4951454;28;20827;-47
2023/07/17 08:24:48;;;;;;;3.33;2.60;;;24.80;42.40;;;;;;4946081;28;20996;-46
2023/07/17 08:27:16;;;;;;;2.23;1.90;;;24.80;42.70;;;;;;4944067;29;20434;-45
2023/07/17 08:29:46;;;;;;;5.80;3.60;;;24.80;42.70;;;;;;4954088;28;20477;-46
2023/07/17 08:32:15;;;;;;;4.97;3.50;;;25.10;38.80;;;;;;4936513;29;20506;-46
2023/07/17 08:34:44;;;;;;;5.30;4.07;;;24.90;37.80;;;;;;4938154;28;20924;-47
2023/07/17 08:37:12;;;;;;;4.50;4.10;;;24.80;39.80;;;;;;4953998;28;20431;-45
2023/07/17 08:39:42;;;;;;;4.43;3.90;;;24.80;39.20;;;;;;4933066;28;20467;-46
2023/07/17 08:42:12;;;;;;;4.03;3.33;;;24.70;39.10;;;;;;4940733;29;20473;-47
2023/07/17 08:44:41;;;;;;;4.70;4.27;;;24.70;39.20;;;;;;4937642;28;20466;-46
2023/07/17 08:47:12;;;;;;;5.37;3.80;;;24.70;39.60;;;;;;4947690;28;20477;-46
2023/07/17 08:49:42;;;;;;;5.20;4.13;;;24.70;40.00;;;;;;4934437;29;21227;-46
2023/07/17 08:52:12;;;;;;;4.50;4.10;;;24.70;40.40;;;;;;4941017;29;20492;-46
2023/07/17 08:54:41;;;;;;;5.43;4.03;;;24.70;40.60;;;;;;4941893;28;20466;-46
2023/07/17 08:57:11;;;;;;;5.13;4.10;;;24.70;40.80;;;;;;4954217;28;20452;-47
2023/07/17 08:59:41;;;;;;;4.00;3.60;;;24.70;40.80;;;;;;4950595;28;20480;-46
2023/07/17 09:02:11;;;;;;;5.67;3.47;;;24.80;41.00;;;;;;4958622;28;20479;-46
2023/07/17 09:04:40;;;;;;;4.47;3.10;;;24.70;41.00;;;;;;4952656;28;20471;-46
2023/07/17 09:07:09;;;;;;;3.90;2.90;;;24.70;41.10;;;;;;4945770;28;20911;-47
2023/07/17 09:09:38;;;;;;;4.63;3.63;;;24.70;41.30;;;;;;4934105;28;20477;-45
2023/07/17 09:12:08;;;;;;;6.87;4.33;;;24.70;41.20;;;;;;4928055;28;20480;-46
2023/07/17 09:14:39;;;;;;;4.73;3.83;;;24.80;41.30;;;;;;4950038;28;20568;-46
2023/07/17 09:17:09;;;;;;;4.23;3.50;;;24.80;41.20;;;;;;4932033;29;20457;-45
2023/07/17 09:19:41;;;;;;;4.00;3.30;;;24.80;41.40;;;;;;4941601;28;20488;-46
2023/07/17 09:22:16;;;;;;;4.67;3.50;;;24.80;41.60;;;;;;4927660;29;20471;-46
2023/07/17 09:24:45;;;;;;;4.10;3.50;;;24.80;41.60;;;;;;4948770;28;20478;-47
2023/07/17 09:27:14;;;;;;;6.23;3.70;;;24.80;41.80;;;;;;4935013;29;20656;-46
2023/07/17 09:29:43;;;;;;;3.80;3.10;;;24.80;41.80;;;;;;4954316;28;20470;-46
2023/07/17 09:32:18;;;;;;;4.00;3.37;;;24.80;41.70;;;;;;4959412;28;20468;-47
2023/07/17 09:34:55;;;;;;;5.00;3.33;;;24.80;41.80;;;;;;4956740;28;20532;-46
2023/07/17 09:37:31;;;;;;;4.40;3.57;;;24.80;41.90;;;;;;4954980;28;20623;-46
2023/07/17 09:40:01;;;;;;;3.30;3.00;;;24.80;41.80;;;;;;4936378;28;20825;-47
2023/07/17 09:42:32;;;;;;;4.73;3.77;;;24.80;41.90;;;;;;4956987;28;20449;-46
2023/07/17 09:45:03;;;;;;;4.80;4.00;;;24.80;41.80;;;;;;4941103;28;20475;-47
2023/07/17 09:47:32;;;;;;;4.23;3.30;;;24.80;41.90;;;;;;4937951;29;20566;-46
2023/07/17 09:50:04;;;;;;;3.80;3.43;;;24.70;41.60;;;;;;4954333;28;20476;-45
2023/07/17 09:52:33;;;;;;;4.80;3.67;;;24.80;41.80;;;;;;4953376;28;20884;-47
2023/07/17 09:55:02;;;;;;;4.40;3.20;;;24.80;41.80;;;;;;4931838;28;20480;-46
2023/07/17 09:57:32;;;;;;;4.13;3.53;;;24.70;41.50;;;;;;4940390;29;20448;-47
2023/07/17 10:00:05;;;;;;;4.90;3.80;;;24.80;41.40;;;;;;4939416;28;20479;-47
2023/07/17 10:02:39;;;;;;;4.10;3.70;;;24.70;41.30;;;;;;4956248;28;20485;-46
2023/07/17 10:05:10;;;;;;;4.23;2.93;;;24.80;41.60;;;;;;4955728;28;20475;-46
2023/07/17 10:07:48;;;;;;;5.40;4.10;;;24.80;41.80;;;;;;4940700;29;20824;-45
2023/07/17 10:10:18;;;;;;;4.70;3.50;;;24.70;41.60;;;;;;4938189;28;20478;-45
2023/07/17 10:12:47;;;;;;;4.73;3.83;;;24.70;41.50;;;;;;4944524;28;20452;-44
2023/07/17 10:15:17;;;;;;;4.80;3.37;;;24.70;41.70;;;;;;4927801;28;20494;-45
2023/07/17 10:17:56;;;;;;;3.77;3.10;;;24.70;41.80;;;;;;4949259;28;20833;-46
2023/07/17 10:20:31;;;;;;;8.53;3.70;;;24.70;41.90;;;;;;4924437;28;20522;-46
2023/07/17 10:23:00;;;;;;;3.70;3.37;;;24.70;41.70;;;;;;4941041;28;20472;-47
2023/07/17 10:25:29;;;;;;;5.10;3.47;;;24.70;41.60;;;;;;4938297;28;20460;-45
2023/07/17 10:27:59;;;;;;;4.63;3.93;;;24.70;41.60;;;;;;4955943;28;21017;-46
2023/07/17 10:30:30;;;;;;;4.50;3.50;;;24.70;41.60;;;;;;4939250;29;20475;-47
2023/07/17 10:33:10;;;;;;;3.23;2.93;;;24.70;41.80;;;;;;4960251;28;20899;-46
2023/07/17 10:35:49;;;;;;;5.27;3.87;;;24.80;41.80;;;;;;4941414;28;20573;-47
2023/07/17 10:38:23;;;;;;;4.17;3.20;;;24.70;41.60;;;;;;4937045;29;20858;-48
2023/07/17 10:41:02;;;;;;;3.20;2.87;;;24.70;41.50;;;;;;4952732;28;20468;-45
2023/07/17 10:43:32;;;;;;;4.40;3.10;;;24.70;41.80;;;;;;4941034;29;20847;-47
2023/07/17 10:46:07;;;;;;;3.60;3.30;;;24.70;41.80;;;;;;4941437;29;20450;-45
2023/07/17 10:48:36;;;;;;;4.77;3.43;;;24.80;41.90;;;;;;4954816;28;20466;-44
2023/07/17 10:51:07;;;;;;;4.07;3.30;;;24.80;41.80;;;;;;4947847;28;20471;-47
2023/07/17 10:53:36;;;;;;;5.67;3.90;;;24.80;41.90;;;;;;4948970;28;20452;-47
2023/07/17 10:56:06;;;;;;;4.10;3.70;;;24.80;42.10;;;;;;4951252;28;20458;-47
2023/07/17 10:58:35;;;;;;;4.20;3.50;;;24.80;41.80;;;;;;4933275;28;20799;-46
2023/07/17 11:01:05;;;;;;;4.00;3.50;;;24.80;41.60;;;;;;4930951;29;20481;-45
2023/07/17 11:03:34;;;;;;;4.13;3.73;;;24.80;41.80;;;;;;4955314;28;20952;-47
2023/07/17 11:06:03;;;;;;;3.30;2.97;;;24.80;41.40;;;;;;4942948;29;20472;-47
2023/07/17 11:08:33;;;;;;;4.67;4.17;;;24.80;41.30;;;;;;4948801;28;20508;-45
2023/07/17 11:11:02;;;;;;;4.20;3.47;;;24.80;41.00;;;;;;4943043;28;20471;-47
2023/07/17 11:13:32;;;;;;;5.13;3.33;;;24.80;40.80;;;;;;4955305;28;20447;-45
2023/07/17 11:16:07;;;;;;;3.50;3.13;;;24.80;41.00;;;;;;4953589;28;20468;-46
2023/07/17 11:18:44;;;;;;;4.40;4.00;;;24.80;41.20;;;;;;4939979;29;20448;-47
2023/07/17 11:21:14;;;;;;;5.17;3.30;;;24.80;41.10;;;;;;4950281;28;20464;-46
2023/07/17 11:23:52;;;;;;;3.53;3.23;;;24.80;40.60;;;;;;4931555;29;20525;-46
2023/07/17 11:26:29;;;;;;;4.90;3.57;;;24.80;40.80;;;;;;4955581;28;20439;-47
2023/07/17 11:28:59;;;;;;;3.33;3.03;;;24.80;40.90;;;;;;4953819;28;20943;-46
2023/07/17 11:31:30;;;;;;;5.60;3.97;;;24.80;41.20;;;;;;4957733;28;20526;-45
2023/07/17 11:34:01;;;;;;;4.40;4.00;;;24.90;41.30;;;;;;4952357;28;20529;-52
2023/07/17 11:36:39;;;;;;;5.00;3.87;;;24.90;41.50;;;;;;4951547;28;20483;-47
2023/07/17 11:39:15;;;;;;;3.90;3.13;;;24.90;40.80;;;;;;4932738;29;20978;-46
2023/07/17 11:41:46;;;;;;;4.53;3.67;;;24.90;41.20;;;;;;4939256;29;20473;-47
2023/07/17 11:44:16;;;;;;;4.53;3.17;;;24.90;41.10;;;;;;4940655;29;20479;-47
2023/07/17 11:46:45;;;;;;;4.70;3.87;;;24.90;41.50;;;;;;4943670;29;20535;-47
2023/07/17 11:49:15;;;;;;;3.90;3.50;;;24.90;41.60;;;;;;4936846;29;20862;-47
2023/07/17 11:51:44;;;;;;;3.40;3.07;;;24.90;41.20;;;;;;4940903;29;20996;-47
2023/07/17 11:54:16;;;;;;;4.80;3.10;;;24.90;41.60;;;;;;4940827;29;20474;-47
2023/07/17 11:56:46;;;;;;;4.47;3.77;;;24.90;41.60;;;;;;4944937;29;20489;-46
2023/07/17 11:59:22;;;;;;;3.60;3.30;;;24.90;41.70;;;;;;4953593;28;20546;-46
2023/07/17 12:01:54;;;;;;;5.50;4.00;;;24.90;41.50;;;;;;4941561;29;20839;-47
2023/07/17 12:04:25;;;;;;;3.73;3.33;;;24.90;41.00;;;;;;4959397;28;20450;-47
2023/07/17 12:06:55;;;;;;;3.00;2.73;;;24.90;41.00;;;;;;4937169;29;20444;-47
2023/07/17 12:09:26;;;;;;;4.07;3.63;;;24.90;41.20;;;;;;4943526;28;20470;-47
2023/07/17 12:11:58;;;;;;;4.57;3.37;;;24.90;40.50;;;;;;4954359;28;20523;-47
2023/07/17 12:14:28;;;;;;;3.47;3.10;;;24.90;40.00;;;;;;4939739;28;20481;-45
2023/07/17 12:16:57;;;;;;;5.00;3.27;;;24.90;40.70;;;;;;4955184;28;20508;-46
2023/07/17 12:19:26;;;;;;;4.40;3.70;;;24.90;40.70;;;;;;4941647;28;20469;-47
2023/07/17 12:21:56;;;;;;;3.53;3.13;;;24.90;40.90;;;;;;4960640;28;20469;-46
2023/07/17 12:24:28;;;;;;;3.60;3.30;;;24.90;40.50;;;;;;4944922;28;20434;-46
2023/07/17 12:26:57;;;;;;;3.83;3.10;;;24.90;40.20;;;;;;4956731;28;20449;-46
2023/07/17 12:29:27;;;;;;;5.60;3.23;;;24.90;40.90;;;;;;4940165;28;20466;-44
2023/07/17 12:31:56;;;;;;;3.50;3.20;;;24.90;41.10;;;;;;4939682;28;20981;-46
2023/07/17 12:34:25;;;;;;;3.87;3.30;;;24.90;41.00;;;;;;4934888;28;20530;-46
2023/07/17 12:36:54;;;;;;;3.77;3.20;;;24.90;40.90;;;;;;4950765;28;20448;-46
2023/07/17 12:39:25;;;;;;;3.83;3.53;;;24.90;41.20;;;;;;4932361;29;20471;-46
2023/07/17 12:41:56;;;;;;;3.57;3.27;;;24.90;41.30;;;;;;4946549;29;20466;-45
2023/07/17 12:44:25;;;;;;;4.80;3.80;;;25.00;41.10;;;;;;4939619;29;20445;-46
2023/07/17 12:46:54;;;;;;;3.77;3.37;;;25.00;41.10;;;;;;4940573;29;20483;-47
2023/07/17 12:49:23;;;;;;;3.50;3.10;;;25.00;41.00;;;;;;4939105;29;20853;-47
2023/07/17 12:51:52;;;;;;;4.47;3.53;;;25.00;41.00;;;;;;4954564;28;20451;-46
2023/07/17 12:54:21;;;;;;;3.77;2.90;;;25.00;41.30;;;;;;4938587;28;20825;-46
2023/07/17 12:56:50;;;;;;;4.20;3.37;;;25.00;41.40;;;;;;4946499;29;20505;-45
2023/07/17 12:59:21;;;;;;;3.73;3.43;;;25.00;40.90;;;;;;4954808;28;20515;-45
2023/07/17 13:01:50;;;;;;;5.57;3.03;;;25.00;40.60;;;;;;4951270;28;20469;-47